sensor_id;sensor_type;location;lat;lon;timestamp;P1;durP1;ratioP1;P2;durP2;ratioP2
489;SDS011;231;48.120;11.576;2023-05-10T00:00:24;5.20;;;3.77;;
489;SDS011;231;48.120;11.576;2023-05-10T00:02:51;3.60;;;3.40;;
489;SDS011;231;48.120;11.576;2023-05-10T00:05:18;3.03;;;2.83;;
489;SDS011;231;48.120;11.576;2023-05-10T00:07:45;7.13;;;3.00;;
489;SDS011;231;48.120;11.576;2023-05-10T00:10:12;6.37;;;3.33;;
489;SDS011;231;48.120;11.576;2023-05-10T00:12:39;2.70;;;2.50;;
489;SDS011;231;48.120;11.576;2023-05-10T00:15:08;2.47;;;2.30;;
489;SDS011;231;48.120;11.576;2023-05-10T00:17:35;4.10;;;2.73;;
489;SDS011;231;48.120;11.576;2023-05-10T00:20:02;3.30;;;3.10;;
489;SDS011;231;48.120;11.576;2023-05-10T00:22:30;2.50;;;2.30;;
489;SDS011;231;48.120;11.576;2023-05-10T00:24:57;1.87;;;1.77;;
489;SDS011;231;48.120;11.576;2023-05-10T00:27:24;2.83;;;2.20;;
489;SDS011;231;48.120;11.576;2023-05-10T00:29:51;2.83;;;2.33;;
489;SDS011;231;48.120;11.576;2023-05-10T00:32:19;2.70;;;2.07;;
489;SDS011;231;48.120;11.576;2023-05-10T00:34:46;3.00;;;1.70;;
489;SDS011;231;48.120;11.576;2023-05-10T00:37:13;2.30;;;2.10;;
489;SDS011;231;48.120;11.576;2023-05-10T00:39:40;2.23;;;2.03;;
489;SDS011;231;48.120;11.576;2023-05-10T00:42:07;2.20;;;2.00;;
489;SDS011;231;48.120;11.576;2023-05-10T00:44:34;1.70;;;1.63;;
489;SDS011;231;48.120;11.576;2023-05-10T00:47:01;1.80;;;1.70;;
489;SDS011;231;48.120;11.576;2023-05-10T00:49:31;2.00;;;1.60;;
489;SDS011;231;48.120;11.576;2023-05-10T00:51:59;1.80;;;1.70;;
489;SDS011;231;48.120;11.576;2023-05-10T00:54:27;1.83;;;1.80;;
489;SDS011;231;48.120;11.576;2023-05-10T00:56:55;2.20;;;1.80;;
489;SDS011;231;48.120;11.576;2023-05-10T00:59:22;1.40;;;1.30;;
489;SDS011;231;48.120;11.576;2023-05-10T01:01:49;1.90;;;1.80;;
489;SDS011;231;48.120;11.576;2023-05-10T01:04:17;3.27;;;2.13;;
489;SDS011;231;48.120;11.576;2023-05-10T01:06:46;1.90;;;1.80;;
489;SDS011;231;48.120;11.576;2023-05-10T01:09:13;1.63;;;1.50;;
489;SDS011;231;48.120;11.576;2023-05-10T01:11:40;1.67;;;1.57;;
489;SDS011;231;48.120;11.576;2023-05-10T01:14:07;2.60;;;1.50;;
489;SDS011;231;48.120;11.576;2023-05-10T01:16:35;2.03;;;1.90;;
489;SDS011;231;48.120;11.576;2023-05-10T01:19:03;4.20;;;1.60;;
489;SDS011;231;48.120;11.576;2023-05-10T01:21:37;1.40;;;1.30;;
489;SDS011;231;48.120;11.576;2023-05-10T01:24:25;1.40;;;1.30;;
489;SDS011;231;48.120;11.576;2023-05-10T01:33:34;1.67;;;1.20;;
489;SDS011;231;48.120;11.576;2023-05-10T01:36:05;1.47;;;1.10;;
489;SDS011;231;48.120;11.576;2023-05-10T01:38:45;2.10;;;1.50;;
489;SDS011;231;48.120;11.576;2023-05-10T01:41:17;2.50;;;1.40;;
489;SDS011;231;48.120;11.576;2023-05-10T01:43:48;4.10;;;1.60;;
489;SDS011;231;48.120;11.576;2023-05-10T01:46:24;2.30;;;1.37;;
489;SDS011;231;48.120;11.576;2023-05-10T01:48:57;1.90;;;1.10;;
489;SDS011;231;48.120;11.576;2023-05-10T01:51:27;1.40;;;1.33;;
489;SDS011;231;48.120;11.576;2023-05-10T01:54:00;1.50;;;1.40;;
489;SDS011;231;48.120;11.576;2023-05-10T01:56:29;1.30;;;1.30;;
489;SDS011;231;48.120;11.576;2023-05-10T01:58:58;2.33;;;1.40;;
489;SDS011;231;48.120;11.576;2023-05-10T02:01:28;1.60;;;1.50;;
489;SDS011;231;48.120;11.576;2023-05-10T02:03:57;1.83;;;1.30;;
489;SDS011;231;48.120;11.576;2023-05-10T02:06:26;1.73;;;1.50;;
489;SDS011;231;48.120;11.576;2023-05-10T02:08:53;1.20;;;1.17;;
489;SDS011;231;48.120;11.576;2023-05-10T02:11:21;1.80;;;1.70;;
489;SDS011;231;48.120;11.576;2023-05-10T02:13:49;1.90;;;1.80;;
489;SDS011;231;48.120;11.576;2023-05-10T02:16:17;1.53;;;1.43;;
489;SDS011;231;48.120;11.576;2023-05-10T02:18:49;1.90;;;1.80;;
489;SDS011;231;48.120;11.576;2023-05-10T02:21:19;1.53;;;1.40;;
489;SDS011;231;48.120;11.576;2023-05-10T02:23:46;1.93;;;1.77;;
489;SDS011;231;48.120;11.576;2023-05-10T02:26:16;3.07;;;1.73;;
489;SDS011;231;48.120;11.576;2023-05-10T02:28:46;1.77;;;1.40;;
489;SDS011;231;48.120;11.576;2023-05-10T02:31:15;1.73;;;1.63;;
489;SDS011;231;48.120;11.576;2023-05-10T02:33:46;1.57;;;1.47;;
489;SDS011;231;48.120;11.576;2023-05-10T02:36:15;1.90;;;1.80;;
489;SDS011;231;48.120;11.576;2023-05-10T02:38:44;1.73;;;1.70;;
489;SDS011;231;48.120;11.576;2023-05-10T02:41:13;1.90;;;1.80;;
489;SDS011;231;48.120;11.576;2023-05-10T02:43:40;1.57;;;1.47;;
489;SDS011;231;48.120;11.576;2023-05-10T02:46:09;2.00;;;1.90;;
489;SDS011;231;48.120;11.576;2023-05-10T02:48:36;1.47;;;1.37;;
489;SDS011;231;48.120;11.576;2023-05-10T02:51:04;1.70;;;1.60;;
489;SDS011;231;48.120;11.576;2023-05-10T02:53:33;1.83;;;1.73;;
489;SDS011;231;48.120;11.576;2023-05-10T02:56:05;1.60;;;1.50;;
489;SDS011;231;48.120;11.576;2023-05-10T02:58:39;2.53;;;1.43;;
489;SDS011;231;48.120;11.576;2023-05-10T03:01:06;1.37;;;1.27;;
489;SDS011;231;48.120;11.576;2023-05-10T03:03:33;2.00;;;1.90;;
489;SDS011;231;48.120;11.576;2023-05-10T03:06:00;1.50;;;1.40;;
489;SDS011;231;48.120;11.576;2023-05-10T03:08:27;1.47;;;1.27;;
489;SDS011;231;48.120;11.576;2023-05-10T03:10:56;1.73;;;1.13;;
489;SDS011;231;48.120;11.576;2023-05-10T03:13:35;1.80;;;1.70;;
489;SDS011;231;48.120;11.576;2023-05-10T03:16:12;1.93;;;1.40;;
489;SDS011;231;48.120;11.576;2023-05-10T03:18:42;1.20;;;1.10;;
489;SDS011;231;48.120;11.576;2023-05-10T03:21:14;1.20;;;1.10;;
489;SDS011;231;48.120;11.576;2023-05-10T03:23:45;0.97;;;0.87;;
489;SDS011;231;48.120;11.576;2023-05-10T03:26:17;1.63;;;1.50;;
489;SDS011;231;48.120;11.576;2023-05-10T03:28:51;1.00;;;1.00;;
489;SDS011;231;48.120;11.576;2023-05-10T03:31:19;1.17;;;1.07;;
489;SDS011;231;48.120;11.576;2023-05-10T03:33:47;1.30;;;1.20;;
489;SDS011;231;48.120;11.576;2023-05-10T03:36:14;3.50;;;1.43;;
489;SDS011;231;48.120;11.576;2023-05-10T03:38:41;1.30;;;1.20;;
489;SDS011;231;48.120;11.576;2023-05-10T03:41:07;1.63;;;1.50;;
489;SDS011;231;48.120;11.576;2023-05-10T03:43:34;2.33;;;0.90;;
489;SDS011;231;48.120;11.576;2023-05-10T03:46:03;1.40;;;1.30;;
489;SDS011;231;48.120;11.576;2023-05-10T03:48:30;1.30;;;1.20;;
489;SDS011;231;48.120;11.576;2023-05-10T03:50:57;1.80;;;1.00;;
489;SDS011;231;48.120;11.576;2023-05-10T03:53:23;1.60;;;1.60;;
489;SDS011;231;48.120;11.576;2023-05-10T03:55:50;1.57;;;1.53;;
489;SDS011;231;48.120;11.576;2023-05-10T03:58:17;1.13;;;1.00;;
489;SDS011;231;48.120;11.576;2023-05-10T04:00:44;1.07;;;0.97;;
489;SDS011;231;48.120;11.576;2023-05-10T04:03:12;1.10;;;1.00;;
489;SDS011;231;48.120;11.576;2023-05-10T04:05:39;1.20;;;0.97;;
489;SDS011;231;48.120;11.576;2023-05-10T04:08:06;0.97;;;0.90;;
489;SDS011;231;48.120;11.576;2023-05-10T04:10:33;1.93;;;1.00;;
489;SDS011;231;48.120;11.576;2023-05-10T04:13:00;2.90;;;1.23;;
489;SDS011;231;48.120;11.576;2023-05-10T04:15:27;1.20;;;1.10;;
489;SDS011;231;48.120;11.576;2023-05-10T04:17:53;0.87;;;0.70;;
489;SDS011;231;48.120;11.576;2023-05-10T04:20:22;1.43;;;1.33;;
489;SDS011;231;48.120;11.576;2023-05-10T04:22:48;1.57;;;0.87;;
489;SDS011;231;48.120;11.576;2023-05-10T04:25:15;1.20;;;1.10;;
489;SDS011;231;48.120;11.576;2023-05-10T04:27:42;1.73;;;1.20;;
489;SDS011;231;48.120;11.576;2023-05-10T04:30:09;2.13;;;1.20;;
489;SDS011;231;48.120;11.576;2023-05-10T04:32:36;1.17;;;1.07;;
489;SDS011;231;48.120;11.576;2023-05-10T04:35:03;1.20;;;1.10;;
489;SDS011;231;48.120;11.576;2023-05-10T04:37:32;1.43;;;1.33;;
489;SDS011;231;48.120;11.576;2023-05-10T04:39:59;1.70;;;1.60;;
489;SDS011;231;48.120;11.576;2023-05-10T04:42:26;1.43;;;1.33;;
489;SDS011;231;48.120;11.576;2023-05-10T04:44:52;0.83;;;0.73;;
489;SDS011;231;48.120;11.576;2023-05-10T04:47:19;1.00;;;0.90;;
489;SDS011;231;48.120;11.576;2023-05-10T04:49:46;1.83;;;1.33;;
489;SDS011;231;48.120;11.576;2023-05-10T04:52:13;1.33;;;1.23;;
489;SDS011;231;48.120;11.576;2023-05-10T04:54:43;0.80;;;0.70;;
489;SDS011;231;48.120;11.576;2023-05-10T04:57:10;1.37;;;1.27;;
489;SDS011;231;48.120;11.576;2023-05-10T04:59:37;1.63;;;0.97;;
489;SDS011;231;48.120;11.576;2023-05-10T05:02:04;0.83;;;0.83;;
489;SDS011;231;48.120;11.576;2023-05-10T05:04:31;1.47;;;1.37;;
489;SDS011;231;48.120;11.576;2023-05-10T05:06:58;1.10;;;1.00;;
489;SDS011;231;48.120;11.576;2023-05-10T05:09:25;1.00;;;0.90;;
489;SDS011;231;48.120;11.576;2023-05-10T05:11:54;1.63;;;1.53;;
489;SDS011;231;48.120;11.576;2023-05-10T05:14:21;1.07;;;0.97;;
489;SDS011;231;48.120;11.576;2023-05-10T05:16:49;0.80;;;0.70;;
489;SDS011;231;48.120;11.576;2023-05-10T05:19:16;0.73;;;0.63;;
489;SDS011;231;48.120;11.576;2023-05-10T05:21:43;0.90;;;0.80;;
489;SDS011;231;48.120;11.576;2023-05-10T05:24:10;1.20;;;1.10;;
489;SDS011;231;48.120;11.576;2023-05-10T05:26:37;0.87;;;0.83;;
489;SDS011;231;48.120;11.576;2023-05-10T05:29:06;1.50;;;1.20;;
489;SDS011;231;48.120;11.576;2023-05-10T05:31:33;1.40;;;1.30;;
489;SDS011;231;48.120;11.576;2023-05-10T05:34:02;4.43;;;1.50;;
489;SDS011;231;48.120;11.576;2023-05-10T05:36:29;2.20;;;1.17;;
489;SDS011;231;48.120;11.576;2023-05-10T05:38:57;1.27;;;1.10;;
489;SDS011;231;48.120;11.576;2023-05-10T05:41:24;1.37;;;1.10;;
489;SDS011;231;48.120;11.576;2023-05-10T05:43:51;0.93;;;0.83;;
489;SDS011;231;48.120;11.576;2023-05-10T05:46:19;4.60;;;1.30;;
489;SDS011;231;48.120;11.576;2023-05-10T05:48:45;2.83;;;1.10;;
489;SDS011;231;48.120;11.576;2023-05-10T05:51:12;3.00;;;1.30;;
489;SDS011;231;48.120;11.576;2023-05-10T05:53:39;2.93;;;1.57;;
489;SDS011;231;48.120;11.576;2023-05-10T05:56:06;2.10;;;1.37;;
489;SDS011;231;48.120;11.576;2023-05-10T05:58:34;1.03;;;0.93;;
489;SDS011;231;48.120;11.576;2023-05-10T06:01:01;1.10;;;1.00;;
489;SDS011;231;48.120;11.576;2023-05-10T06:03:29;1.60;;;1.60;;
489;SDS011;231;48.120;11.576;2023-05-10T06:05:56;1.27;;;1.20;;
489;SDS011;231;48.120;11.576;2023-05-10T06:08:23;1.80;;;1.70;;
489;SDS011;231;48.120;11.576;2023-05-10T06:10:50;4.53;;;1.80;;
489;SDS011;231;48.120;11.576;2023-05-10T06:13:17;1.70;;;1.60;;
489;SDS011;231;48.120;11.576;2023-05-10T06:15:44;4.67;;;1.63;;
489;SDS011;231;48.120;11.576;2023-05-10T06:18:11;2.43;;;2.30;;
489;SDS011;231;48.120;11.576;2023-05-10T06:20:40;1.70;;;1.60;;
489;SDS011;231;48.120;11.576;2023-05-10T06:23:08;1.20;;;1.10;;
489;SDS011;231;48.120;11.576;2023-05-10T06:25:37;1.97;;;1.87;;
489;SDS011;231;48.120;11.576;2023-05-10T06:28:03;2.00;;;1.90;;
489;SDS011;231;48.120;11.576;2023-05-10T06:30:30;2.03;;;1.90;;
489;SDS011;231;48.120;11.576;2023-05-10T06:32:57;1.53;;;1.43;;
489;SDS011;231;48.120;11.576;2023-05-10T06:35:24;2.93;;;1.93;;
489;SDS011;231;48.120;11.576;2023-05-10T06:37:52;1.80;;;1.70;;
489;SDS011;231;48.120;11.576;2023-05-10T06:40:19;2.30;;;1.90;;
489;SDS011;231;48.120;11.576;2023-05-10T06:42:46;2.50;;;2.30;;
489;SDS011;231;48.120;11.576;2023-05-10T06:45:14;2.53;;;2.30;;
489;SDS011;231;48.120;11.576;2023-05-10T06:47:41;2.93;;;2.73;;
489;SDS011;231;48.120;11.576;2023-05-10T06:50:08;8.37;;;2.70;;
489;SDS011;231;48.120;11.576;2023-05-10T06:52:36;3.77;;;2.53;;
489;SDS011;231;48.120;11.576;2023-05-10T06:55:05;2.80;;;2.60;;
489;SDS011;231;48.120;11.576;2023-05-10T06:57:33;2.80;;;2.63;;
489;SDS011;231;48.120;11.576;2023-05-10T07:00:00;5.90;;;2.80;;
489;SDS011;231;48.120;11.576;2023-05-10T07:02:29;2.70;;;2.50;;
489;SDS011;231;48.120;11.576;2023-05-10T07:04:55;2.27;;;2.13;;
489;SDS011;231;48.120;11.576;2023-05-10T07:07:22;3.40;;;3.20;;
489;SDS011;231;48.120;11.576;2023-05-10T07:09:49;3.70;;;3.50;;
489;SDS011;231;48.120;11.576;2023-05-10T07:12:17;3.80;;;3.37;;
489;SDS011;231;48.120;11.576;2023-05-10T07:14:44;2.50;;;2.30;;
489;SDS011;231;48.120;11.576;2023-05-10T07:17:11;2.40;;;2.20;;
489;SDS011;231;48.120;11.576;2023-05-10T07:19:38;2.30;;;2.10;;
489;SDS011;231;48.120;11.576;2023-05-10T07:22:05;2.20;;;2.00;;
489;SDS011;231;48.120;11.576;2023-05-10T07:24:32;1.70;;;1.60;;
489;SDS011;231;48.120;11.576;2023-05-10T07:26:59;2.10;;;1.80;;
489;SDS011;231;48.120;11.576;2023-05-10T07:29:27;1.60;;;1.50;;
489;SDS011;231;48.120;11.576;2023-05-10T07:31:54;1.63;;;1.53;;
489;SDS011;231;48.120;11.576;2023-05-10T07:34:21;2.53;;;1.50;;
489;SDS011;231;48.120;11.576;2023-05-10T07:36:48;1.27;;;1.20;;
489;SDS011;231;48.120;11.576;2023-05-10T07:39:15;1.10;;;1.00;;
489;SDS011;231;48.120;11.576;2023-05-10T07:41:42;1.00;;;0.90;;
489;SDS011;231;48.120;11.576;2023-05-10T07:44:09;1.97;;;1.00;;
489;SDS011;231;48.120;11.576;2023-05-10T07:46:37;1.07;;;0.90;;
489;SDS011;231;48.120;11.576;2023-05-10T07:49:04;3.00;;;0.90;;
489;SDS011;231;48.120;11.576;2023-05-10T07:51:31;1.77;;;0.97;;
489;SDS011;231;48.120;11.576;2023-05-10T07:53:58;1.27;;;0.83;;
489;SDS011;231;48.120;11.576;2023-05-10T07:56:25;3.60;;;0.90;;
489;SDS011;231;48.120;11.576;2023-05-10T07:58:54;1.40;;;1.40;;
489;SDS011;231;48.120;11.576;2023-05-10T08:01:21;1.23;;;0.87;;
489;SDS011;231;48.120;11.576;2023-05-10T08:03:50;0.87;;;0.80;;
489;SDS011;231;48.120;11.576;2023-05-10T08:06:18;1.33;;;0.80;;
489;SDS011;231;48.120;11.576;2023-05-10T08:08:46;1.27;;;0.90;;
489;SDS011;231;48.120;11.576;2023-05-10T08:11:15;0.83;;;0.80;;
489;SDS011;231;48.120;11.576;2023-05-10T08:13:42;1.27;;;0.87;;
489;SDS011;231;48.120;11.576;2023-05-10T08:16:09;2.47;;;1.20;;
489;SDS011;231;48.120;11.576;2023-05-10T08:18:36;3.93;;;1.00;;
489;SDS011;231;48.120;11.576;2023-05-10T08:21:04;3.73;;;1.30;;
489;SDS011;231;48.120;11.576;2023-05-10T08:23:31;1.73;;;0.90;;
489;SDS011;231;48.120;11.576;2023-05-10T08:25:58;1.43;;;1.10;;
489;SDS011;231;48.120;11.576;2023-05-10T08:28:25;0.93;;;0.60;;
489;SDS011;231;48.120;11.576;2023-05-10T08:30:52;3.00;;;0.97;;
489;SDS011;231;48.120;11.576;2023-05-10T08:33:19;0.97;;;0.87;;
489;SDS011;231;48.120;11.576;2023-05-10T08:35:46;1.07;;;0.70;;
489;SDS011;231;48.120;11.576;2023-05-10T08:38:14;1.40;;;0.90;;
489;SDS011;231;48.120;11.576;2023-05-10T08:40:41;1.00;;;0.90;;
489;SDS011;231;48.120;11.576;2023-05-10T08:43:09;1.23;;;1.20;;
489;SDS011;231;48.120;11.576;2023-05-10T08:45:40;1.67;;;0.93;;
489;SDS011;231;48.120;11.576;2023-05-10T08:48:08;1.60;;;1.10;;
489;SDS011;231;48.120;11.576;2023-05-10T08:50:36;1.07;;;0.70;;
489;SDS011;231;48.120;11.576;2023-05-10T08:53:05;1.63;;;1.17;;
489;SDS011;231;48.120;11.576;2023-05-10T08:55:36;2.10;;;1.20;;
489;SDS011;231;48.120;11.576;2023-05-10T08:58:05;2.27;;;1.20;;
489;SDS011;231;48.120;11.576;2023-05-10T09:00:32;1.33;;;1.03;;
489;SDS011;231;48.120;11.576;2023-05-10T09:03:00;1.53;;;1.43;;
489;SDS011;231;48.120;11.576;2023-05-10T09:05:27;1.57;;;1.20;;
489;SDS011;231;48.120;11.576;2023-05-10T09:07:54;2.23;;;1.07;;
489;SDS011;231;48.120;11.576;2023-05-10T09:10:21;1.00;;;0.90;;
489;SDS011;231;48.120;11.576;2023-05-10T09:12:53;1.87;;;1.00;;
489;SDS011;231;48.120;11.576;2023-05-10T09:15:22;1.50;;;1.40;;
489;SDS011;231;48.120;11.576;2023-05-10T09:17:50;0.70;;;0.70;;
489;SDS011;231;48.120;11.576;2023-05-10T09:20:17;1.33;;;0.93;;
489;SDS011;231;48.120;11.576;2023-05-10T09:22:44;2.00;;;0.90;;
489;SDS011;231;48.120;11.576;2023-05-10T09:25:11;2.00;;;1.00;;
489;SDS011;231;48.120;11.576;2023-05-10T09:27:39;1.30;;;1.20;;
489;SDS011;231;48.120;11.576;2023-05-10T09:30:09;0.60;;;0.60;;
489;SDS011;231;48.120;11.576;2023-05-10T09:32:36;0.80;;;0.70;;
489;SDS011;231;48.120;11.576;2023-05-10T09:35:08;1.10;;;0.83;;
489;SDS011;231;48.120;11.576;2023-05-10T09:37:35;2.03;;;0.73;;
489;SDS011;231;48.120;11.576;2023-05-10T09:40:06;1.17;;;1.00;;
489;SDS011;231;48.120;11.576;2023-05-10T09:42:33;1.07;;;0.97;;
489;SDS011;231;48.120;11.576;2023-05-10T09:45:04;0.70;;;0.67;;
489;SDS011;231;48.120;11.576;2023-05-10T09:47:34;1.20;;;1.13;;
489;SDS011;231;48.120;11.576;2023-05-10T09:50:02;3.23;;;1.10;;
489;SDS011;231;48.120;11.576;2023-05-10T09:52:30;3.40;;;0.80;;
489;SDS011;231;48.120;11.576;2023-05-10T09:54:57;1.00;;;0.90;;
489;SDS011;231;48.120;11.576;2023-05-10T09:57:24;0.97;;;0.90;;
489;SDS011;231;48.120;11.576;2023-05-10T09:59:51;3.90;;;0.90;;
489;SDS011;231;48.120;11.576;2023-05-10T10:02:19;0.93;;;0.87;;
489;SDS011;231;48.120;11.576;2023-05-10T10:04:50;0.87;;;0.80;;
489;SDS011;231;48.120;11.576;2023-05-10T10:07:22;0.90;;;0.80;;
489;SDS011;231;48.120;11.576;2023-05-10T10:09:50;1.57;;;1.10;;
489;SDS011;231;48.120;11.576;2023-05-10T10:12:17;1.00;;;0.80;;
489;SDS011;231;48.120;11.576;2023-05-10T10:14:45;1.20;;;1.03;;
489;SDS011;231;48.120;11.576;2023-05-10T10:17:14;2.50;;;1.40;;
489;SDS011;231;48.120;11.576;2023-05-10T10:19:41;1.37;;;0.90;;
489;SDS011;231;48.120;11.576;2023-05-10T10:22:10;0.83;;;0.77;;
489;SDS011;231;48.120;11.576;2023-05-10T10:24:37;1.10;;;1.00;;
489;SDS011;231;48.120;11.576;2023-05-10T10:27:14;1.00;;;0.90;;
489;SDS011;231;48.120;11.576;2023-05-10T10:30:27;1.40;;;1.30;;
489;SDS011;231;48.120;11.576;2023-05-10T10:37:08;1.37;;;0.80;;
489;SDS011;231;48.120;11.576;2023-05-10T10:40:55;0.80;;;0.70;;
489;SDS011;231;48.120;11.576;2023-05-10T10:47:48;1.10;;;1.00;;
489;SDS011;231;48.120;11.576;2023-05-10T10:50:19;1.50;;;1.40;;
489;SDS011;231;48.120;11.576;2023-05-10T10:52:47;2.30;;;1.30;;
489;SDS011;231;48.120;11.576;2023-05-10T10:55:18;1.73;;;1.13;;
489;SDS011;231;48.120;11.576;2023-05-10T10:57:48;1.10;;;1.10;;
489;SDS011;231;48.120;11.576;2023-05-10T11:00:21;1.53;;;1.17;;
489;SDS011;231;48.120;11.576;2023-05-10T11:02:50;1.00;;;1.00;;
489;SDS011;231;48.120;11.576;2023-05-10T11:05:33;2.87;;;1.63;;
489;SDS011;231;48.120;11.576;2023-05-10T11:08:08;1.33;;;1.30;;
489;SDS011;231;48.120;11.576;2023-05-10T11:10:52;4.43;;;1.67;;
489;SDS011;231;48.120;11.576;2023-05-10T11:13:32;3.47;;;2.40;;
489;SDS011;231;48.120;11.576;2023-05-10T11:16:09;4.20;;;1.93;;
489;SDS011;231;48.120;11.576;2023-05-10T11:18:37;5.00;;;2.00;;
489;SDS011;231;48.120;11.576;2023-05-10T11:21:04;3.10;;;1.70;;
489;SDS011;231;48.120;11.576;2023-05-10T11:23:47;2.43;;;2.20;;
489;SDS011;231;48.120;11.576;2023-05-10T11:26:15;2.40;;;2.20;;
489;SDS011;231;48.120;11.576;2023-05-10T11:28:43;3.00;;;2.63;;
489;SDS011;231;48.120;11.576;2023-05-10T11:31:10;3.10;;;2.40;;
489;SDS011;231;48.120;11.576;2023-05-10T11:33:46;3.73;;;2.60;;
489;SDS011;231;48.120;11.576;2023-05-10T11:36:14;3.30;;;2.33;;
489;SDS011;231;48.120;11.576;2023-05-10T11:38:43;23.07;;;4.50;;
489;SDS011;231;48.120;11.576;2023-05-10T11:41:11;10.47;;;3.30;;
489;SDS011;231;48.120;11.576;2023-05-10T11:43:38;24.73;;;5.23;;
489;SDS011;231;48.120;11.576;2023-05-10T11:46:06;5.10;;;3.77;;
489;SDS011;231;48.120;11.576;2023-05-10T11:48:33;3.93;;;3.77;;
489;SDS011;231;48.120;11.576;2023-05-10T11:51:00;5.07;;;4.53;;
489;SDS011;231;48.120;11.576;2023-05-10T11:53:28;5.23;;;4.93;;
489;SDS011;231;48.120;11.576;2023-05-10T11:56:03;4.10;;;3.87;;
489;SDS011;231;48.120;11.576;2023-05-10T11:58:31;5.37;;;5.07;;
489;SDS011;231;48.120;11.576;2023-05-10T12:01:01;6.37;;;4.63;;
489;SDS011;231;48.120;11.576;2023-05-10T12:03:28;7.30;;;4.27;;
489;SDS011;231;48.120;11.576;2023-05-10T12:05:56;7.90;;;3.63;;
489;SDS011;231;48.120;11.576;2023-05-10T12:08:24;3.27;;;3.10;;
489;SDS011;231;48.120;11.576;2023-05-10T12:10:53;4.50;;;3.47;;
489;SDS011;231;48.120;11.576;2023-05-10T12:13:31;3.90;;;3.17;;
489;SDS011;231;48.120;11.576;2023-05-10T12:15:58;9.10;;;4.13;;
489;SDS011;231;48.120;11.576;2023-05-10T12:18:25;4.37;;;4.07;;
489;SDS011;231;48.120;11.576;2023-05-10T12:20:52;7.17;;;4.57;;
489;SDS011;231;48.120;11.576;2023-05-10T12:23:20;3.33;;;3.13;;
489;SDS011;231;48.120;11.576;2023-05-10T12:25:46;6.50;;;4.10;;
489;SDS011;231;48.120;11.576;2023-05-10T12:28:14;7.53;;;4.00;;
489;SDS011;231;48.120;11.576;2023-05-10T12:30:42;3.50;;;3.30;;
489;SDS011;231;48.120;11.576;2023-05-10T12:33:10;3.83;;;3.67;;
489;SDS011;231;48.120;11.576;2023-05-10T12:35:45;5.77;;;4.10;;
489;SDS011;231;48.120;11.576;2023-05-10T12:38:24;14.40;;;4.80;;
489;SDS011;231;48.120;11.576;2023-05-10T12:40:53;5.90;;;5.33;;
489;SDS011;231;48.120;11.576;2023-05-10T12:43:21;12.23;;;5.87;;
489;SDS011;231;48.120;11.576;2023-05-10T12:45:49;8.00;;;4.87;;
489;SDS011;231;48.120;11.576;2023-05-10T12:48:16;7.53;;;5.00;;
489;SDS011;231;48.120;11.576;2023-05-10T12:50:43;4.67;;;4.37;;
489;SDS011;231;48.120;11.576;2023-05-10T12:53:10;3.87;;;3.67;;
489;SDS011;231;48.120;11.576;2023-05-10T12:55:38;6.50;;;4.57;;
489;SDS011;231;48.120;11.576;2023-05-10T12:58:05;5.07;;;4.40;;
489;SDS011;231;48.120;11.576;2023-05-10T13:00:31;4.90;;;4.60;;
489;SDS011;231;48.120;11.576;2023-05-10T13:03:00;4.80;;;4.47;;
489;SDS011;231;48.120;11.576;2023-05-10T13:05:27;5.90;;;3.80;;
489;SDS011;231;48.120;11.576;2023-05-10T13:07:54;4.30;;;4.00;;
489;SDS011;231;48.120;11.576;2023-05-10T13:10:21;4.40;;;4.10;;
489;SDS011;231;48.120;11.576;2023-05-10T13:12:48;4.70;;;4.30;;
489;SDS011;231;48.120;11.576;2023-05-10T13:15:15;4.57;;;4.27;;
489;SDS011;231;48.120;11.576;2023-05-10T13:17:42;4.40;;;4.10;;
489;SDS011;231;48.120;11.576;2023-05-10T13:20:11;5.80;;;4.60;;
489;SDS011;231;48.120;11.576;2023-05-10T13:22:39;4.77;;;4.47;;
489;SDS011;231;48.120;11.576;2023-05-10T13:25:06;5.43;;;4.77;;
489;SDS011;231;48.120;11.576;2023-05-10T13:27:33;4.40;;;4.20;;
489;SDS011;231;48.120;11.576;2023-05-10T13:29:59;7.33;;;5.80;;
489;SDS011;231;48.120;11.576;2023-05-10T13:32:29;5.20;;;4.90;;
489;SDS011;231;48.120;11.576;2023-05-10T13:34:56;5.03;;;4.73;;
489;SDS011;231;48.120;11.576;2023-05-10T13:37:25;4.70;;;4.50;;
489;SDS011;231;48.120;11.576;2023-05-10T13:39:52;3.50;;;3.10;;
489;SDS011;231;48.120;11.576;2023-05-10T13:42:19;4.63;;;4.33;;
489;SDS011;231;48.120;11.576;2023-05-10T13:44:45;4.40;;;4.10;;
489;SDS011;231;48.120;11.576;2023-05-10T13:47:15;7.73;;;4.17;;
489;SDS011;231;48.120;11.576;2023-05-10T13:49:41;4.50;;;3.97;;
489;SDS011;231;48.120;11.576;2023-05-10T13:52:08;8.70;;;4.37;;
489;SDS011;231;48.120;11.576;2023-05-10T13:54:36;4.40;;;3.70;;
489;SDS011;231;48.120;11.576;2023-05-10T13:57:04;5.77;;;3.27;;
489;SDS011;231;48.120;11.576;2023-05-10T13:59:31;3.60;;;3.40;;
489;SDS011;231;48.120;11.576;2023-05-10T14:01:58;4.60;;;4.30;;
489;SDS011;231;48.120;11.576;2023-05-10T14:04:27;4.33;;;3.90;;
489;SDS011;231;48.120;11.576;2023-05-10T14:06:54;5.43;;;5.07;;
489;SDS011;231;48.120;11.576;2023-05-10T14:09:21;5.57;;;4.93;;
489;SDS011;231;48.120;11.576;2023-05-10T14:11:49;3.93;;;3.73;;
489;SDS011;231;48.120;11.576;2023-05-10T14:14:16;6.77;;;5.00;;
489;SDS011;231;48.120;11.576;2023-05-10T14:16:43;7.80;;;4.93;;
489;SDS011;231;48.120;11.576;2023-05-10T14:19:11;7.90;;;4.93;;
489;SDS011;231;48.120;11.576;2023-05-10T14:21:38;5.10;;;4.80;;
489;SDS011;231;48.120;11.576;2023-05-10T14:31:58;5.50;;;5.20;;
489;SDS011;231;48.120;11.576;2023-05-10T14:34:25;3.90;;;3.70;;
489;SDS011;231;48.120;11.576;2023-05-10T14:36:52;4.60;;;4.30;;
489;SDS011;231;48.120;11.576;2023-05-10T14:39:19;4.37;;;4.07;;
489;SDS011;231;48.120;11.576;2023-05-10T14:41:46;4.93;;;3.30;;
489;SDS011;231;48.120;11.576;2023-05-10T14:44:13;3.17;;;2.97;;
489;SDS011;231;48.120;11.576;2023-05-10T14:46:42;3.90;;;3.37;;
489;SDS011;231;48.120;11.576;2023-05-10T14:49:09;5.17;;;3.57;;
489;SDS011;231;48.120;11.576;2023-05-10T14:51:36;3.50;;;3.00;;
489;SDS011;231;48.120;11.576;2023-05-10T14:54:03;4.20;;;2.90;;
489;SDS011;231;48.120;11.576;2023-05-10T14:56:30;2.40;;;2.20;;
489;SDS011;231;48.120;11.576;2023-05-10T14:58:58;4.10;;;2.50;;
489;SDS011;231;48.120;11.576;2023-05-10T15:01:25;6.00;;;2.80;;
489;SDS011;231;48.120;11.576;2023-05-10T15:03:56;3.00;;;2.80;;
489;SDS011;231;48.120;11.576;2023-05-10T15:06:30;3.83;;;3.67;;
489;SDS011;231;48.120;11.576;2023-05-10T15:09:01;2.90;;;2.67;;
489;SDS011;231;48.120;11.576;2023-05-10T15:11:29;3.50;;;3.30;;
489;SDS011;231;48.120;11.576;2023-05-10T15:13:56;3.13;;;2.67;;
489;SDS011;231;48.120;11.576;2023-05-10T15:16:24;3.57;;;3.00;;
489;SDS011;231;48.120;11.576;2023-05-10T15:18:57;3.63;;;2.80;;
489;SDS011;231;48.120;11.576;2023-05-10T15:21:25;3.20;;;2.60;;
489;SDS011;231;48.120;11.576;2023-05-10T15:24:12;2.93;;;2.73;;
489;SDS011;231;48.120;11.576;2023-05-10T15:26:47;3.70;;;3.50;;
489;SDS011;231;48.120;11.576;2023-05-10T15:29:17;3.47;;;3.27;;
489;SDS011;231;48.120;11.576;2023-05-10T15:31:46;2.93;;;2.73;;
489;SDS011;231;48.120;11.576;2023-05-10T15:34:17;3.13;;;2.77;;
489;SDS011;231;48.120;11.576;2023-05-10T15:36:51;3.57;;;2.87;;
489;SDS011;231;48.120;11.576;2023-05-10T15:39:21;3.20;;;3.07;;
489;SDS011;231;48.120;11.576;2023-05-10T15:41:48;4.17;;;3.30;;
489;SDS011;231;48.120;11.576;2023-05-10T15:44:16;3.40;;;3.20;;
489;SDS011;231;48.120;11.576;2023-05-10T15:46:43;3.33;;;3.13;;
489;SDS011;231;48.120;11.576;2023-05-10T15:49:10;7.03;;;3.23;;
489;SDS011;231;48.120;11.576;2023-05-10T15:51:39;3.67;;;3.13;;
489;SDS011;231;48.120;11.576;2023-05-10T15:54:06;4.50;;;3.27;;
489;SDS011;231;48.120;11.576;2023-05-10T15:56:33;3.97;;;3.77;;
489;SDS011;231;48.120;11.576;2023-05-10T15:59:00;5.80;;;3.37;;
489;SDS011;231;48.120;11.576;2023-05-10T16:01:41;4.70;;;4.40;;